Terminal Aerodrome Forecast
Issued by NWS

Home | Current Version | Previous Version | Text Only | Print | Product List | Glossary On
Versions: 1 2 3 4 5 6 7 8 9 10 11 12 13 14 15 16
000
FTAK31 PAJN 241726
TAFAWG
TAF
PAWG 241726Z 2418/2518 10010G16KT P6SM FEW035 OVC060 WS020/15030KT
     FM250500 11006KT 6SM BR VCSH FEW010 BKN025 OVC050=

USA.gov is the U.S. government's official web portal to all federal, state and local government web resources and services.